Airfield :
LOGIN :

Register | Disclaimer

   EN    FR    IT 

 










Legend :    VFR   Marginal VFR   IFR   Intensive IFR   Very Intensive IFR
Visi :
Ceiling :
>= 8 km
>= 3000ft
5 to 8 km
1000 to 3000 ft
1500m to 5 km
500 to 1000 ft
800 to 1500m
200 to 500 ft
< 800m
< 200 ft
Symbols :   Thunderstorms  Fog  Heavy snow  Heavy precipitations  Wind > 20 kt
SIGMETs :     Misc.  Thunderstorms  Icing  Turbulence  Mountain Waves  Volcanic Ashes







- Airport Elevation : 42 ft
- IATA code : KGD


UMKK - Khrabrava - Kaliningrad

CURRENT METAR :
  • 230430Z 26004MPS 9999 SCT014 16/15 Q1018 R24/CLRD60 NOSIG RMK QFE762/1016

EXPIRED METARs :
  • 230400Z 26003MPS 9999 SCT015 16/15 Q1018 R24/CLRD60 NOSIG RMK QFE762/1016
  • 230330Z 26003MPS 9999 SCT013 15/14 Q1018 R24/CLRD60 NOSIG RMK QFE762/1016
  • 230300Z 25004MPS 9999 SCT014 14/13 Q1018 R24/CLRD60 NOSIG RMK QFE762/1016
  • 230230Z 25004MPS 9999 SCT013 14/13 Q1018 R24/CLRD60 NOSIG RMK QFE762/1016
  • 230200Z 24004MPS 9999 SCT012 14/13 Q1018 R24/CLRD60 NOSIG RMK QFE762/1016

TAF TAF UMKK
Valid from the 23 at 03:00 until the 24 at 03:00 UTC


230154Z 2303/2403 24003G08MPS 9999 SCT011 BKN015
TEMPO 2303/2306 28003G08MPS
BECMG 2306/2308 30003G08MPS
BECMG 2310/2312 32003G08MPS
BECMG 2318/2320 VRB01MPS BKN011
TEMPO 2320/2403 3100 -SHRA BKN015CB



MET'MAP, your aeronautical weather chart ! - Copyright ORBIFLY December 2007 - Disclaimer

ORBIFLY MET'MAP TEAM :

Programming & Development : Alexandra Zaïnal
Concept & Development : Baudouin d'Aumeries
Co-Development & Prog : Marc-Olivier Méhu
Technical & hardware support : Manuel Goepfert

Contact : metmap@orbifly.com




SOURCES & CREDITS :

   NOAA